createdAt,value
2019-04-09T00:01:26.367Z,100.00
2019-04-09T00:03:56.476Z,100.00
2019-04-09T00:06:27.383Z,99.85
2019-04-09T00:08:58.334Z,99.40
2019-04-09T00:11:28.939Z,99.15
2019-04-09T00:13:59.548Z,99.06
2019-04-09T00:16:29.765Z,99.14
2019-04-09T00:19:00.524Z,99.32
2019-04-09T00:21:31.619Z,100.00
2019-04-09T00:24:01.682Z,100.00
2019-04-09T00:26:44.826Z,100.00
2019-04-09T00:29:03.326Z,100.00
2019-04-09T00:31:34.686Z,100.00
2019-04-09T00:34:05.580Z,100.00
2019-04-09T00:36:35.764Z,100.00
2019-04-09T00:39:07.964Z,100.00
2019-04-09T00:41:38.120Z,100.00
2019-04-09T00:44:08.369Z,100.00
2019-04-09T00:46:38.380Z,100.00
2019-04-09T00:49:09.899Z,100.00
2019-04-09T00:51:41.454Z,100.00
2019-04-09T00:54:12.754Z,100.00
2019-04-09T00:56:55.726Z,100.00
2019-04-09T00:59:15.412Z,100.00
2019-04-09T01:01:46.340Z,100.00
2019-04-09T01:04:16.467Z,100.00
2019-04-09T01:06:46.435Z,100.00
2019-04-09T01:09:18.761Z,100.00
2019-04-09T01:11:49.972Z,100.00
2019-04-09T01:14:19.924Z,100.00
2019-04-09T01:16:50.773Z,100.00
2019-04-09T01:19:22.148Z,100.00
2019-04-09T01:21:52.505Z,100.00
2019-04-09T01:24:30.875Z,100.00
2019-04-09T01:27:09.728Z,100.00
2019-04-09T01:29:51.554Z,100.00
2019-04-09T01:32:41.707Z,100.00
2019-04-09T01:35:33.414Z,100.00
2019-04-09T01:38:09.622Z,100.00
2019-04-09T01:40:46.090Z,100.00
2019-04-09T01:43:26.758Z,100.00
2019-04-09T01:46:30.937Z,100.00
2019-04-09T01:49:11.629Z,100.00
2019-04-09T01:52:00.534Z,100.00
2019-04-09T01:54:37.751Z,100.00
2019-04-09T01:57:34.710Z,100.00
2019-04-09T02:00:21.783Z,100.00
2019-04-09T02:03:13.071Z,100.00
2019-04-09T02:06:01.223Z,100.00
2019-04-09T02:08:48.764Z,100.00
2019-04-09T02:11:28.092Z,100.00
2019-04-09T02:14:12.020Z,100.00
2019-04-09T02:16:49.444Z,100.00
2019-04-09T02:19:38.146Z,100.00
2019-04-09T02:22:30.778Z,100.00
2019-04-09T02:25:18.962Z,100.00
2019-04-09T02:28:14.121Z,100.00
2019-04-09T02:31:02.177Z,100.00
2019-04-09T02:33:51.209Z,100.00
2019-04-09T02:36:46.375Z,100.00
2019-04-09T02:39:29.111Z,100.00
2019-04-09T02:42:33.107Z,100.00
2019-04-09T02:45:20.608Z,100.00
2019-04-09T02:48:03.039Z,100.00
2019-04-09T02:50:55.358Z,100.00
2019-04-09T02:53:59.441Z,100.00
2019-04-09T02:56:51.103Z,100.00
2019-04-09T02:59:29.481Z,100.00
2019-04-09T03:02:07.753Z,100.00
2019-04-09T03:05:02.658Z,100.00
2019-04-09T03:07:50.258Z,100.00
2019-04-09T03:10:39.081Z,100.00
2019-04-09T03:13:26.944Z,100.00
2019-04-09T03:16:15.257Z,100.00
2019-04-09T03:19:01.183Z,100.00
2019-04-09T03:21:52.769Z,100.00
2019-04-09T03:24:37.604Z,100.00
2019-04-09T03:27:30.806Z,100.00
2019-04-09T03:30:16.805Z,100.00
2019-04-09T03:33:18.916Z,100.00
2019-04-09T03:36:08.198Z,100.00
2019-04-09T03:38:49.690Z,100.00
2019-04-09T03:41:50.560Z,100.00
2019-04-09T03:44:35.665Z,100.00
2019-04-09T03:47:24.632Z,100.00
2019-04-09T03:50:01.689Z,100.00
2019-04-09T03:52:45.580Z,100.00
2019-04-09T03:55:26.652Z,100.00
2019-04-09T03:58:17.296Z,100.00
2019-04-09T04:00:57.301Z,100.00
2019-04-09T04:03:40.562Z,100.00
2019-04-09T04:06:17.625Z,100.00
2019-04-09T04:08:56.700Z,100.00
2019-04-09T04:11:52.682Z,100.00
2019-04-09T04:14:40.875Z,100.00
2019-04-09T04:17:32.651Z,100.00
2019-04-09T04:20:31.256Z,100.00
2019-04-09T04:23:23.091Z,100.00
2019-04-09T04:26:27.006Z,100.00
2019-04-09T04:29:33.988Z,100.00
2019-04-09T04:32:20.902Z,100.00
2019-04-09T04:34:56.578Z,100.00
2019-04-09T04:37:45.642Z,100.00
2019-04-09T04:40:49.690Z,100.00
2019-04-09T04:43:45.707Z,100.00
2019-04-09T04:46:37.607Z,100.00
2019-04-09T04:49:29.220Z,100.00
2019-04-09T04:52:15.636Z,100.00
2019-04-09T04:55:08.465Z,100.00
2019-04-09T04:58:06.382Z,100.00
2019-04-09T05:01:01.758Z,100.00
2019-04-09T05:03:48.743Z,100.00
2019-04-09T05:06:43.346Z,100.00
2019-04-09T05:09:32.998Z,100.00
2019-04-09T05:12:18.384Z,100.00
2019-04-09T05:15:03.553Z,100.00
2019-04-09T05:17:49.124Z,100.00
2019-04-09T05:20:36.159Z,100.00
2019-04-09T05:23:19.244Z,100.00
2019-04-09T05:26:03.955Z,100.00
2019-04-09T05:28:53.888Z,100.00
2019-04-09T05:31:34.783Z,100.00
2019-04-09T05:34:23.335Z,100.00
2019-04-09T05:37:24.789Z,100.00
2019-04-09T05:40:12.791Z,100.00
2019-04-09T05:42:53.267Z,100.00
2019-04-09T05:45:51.136Z,100.00
2019-04-09T05:48:40.305Z,100.00
2019-04-09T05:51:23.456Z,100.00
2019-04-09T05:54:18.288Z,100.00
2019-04-09T05:57:11.439Z,100.00
2019-04-09T06:00:03.933Z,100.00
2019-04-09T06:02:51.037Z,100.00
2019-04-09T06:05:33.142Z,100.00
2019-04-09T06:08:24.879Z,100.00
2019-04-09T06:10:54.120Z,100.00
2019-04-09T06:13:25.227Z,100.00
2019-04-09T06:15:55.435Z,100.00
2019-04-09T06:18:25.997Z,100.00
2019-04-09T06:20:55.865Z,100.00
2019-04-09T06:23:26.140Z,100.00
2019-04-09T06:25:56.166Z,100.00
2019-04-09T06:28:26.122Z,100.00
2019-04-09T06:30:56.040Z,100.00
2019-04-09T06:33:44.117Z,100.00
2019-04-09T06:36:26.072Z,100.00
2019-04-09T06:39:16.615Z,100.00
2019-04-09T06:42:21.267Z,100.00
2019-04-09T06:45:10.501Z,100.00
2019-04-09T06:48:02.250Z,100.00
2019-04-09T06:50:49.425Z,100.00
2019-04-09T06:53:31.566Z,100.00
2019-04-09T06:56:20.588Z,100.00
2019-04-09T06:59:26.974Z,100.00
2019-04-09T07:02:13.833Z,100.00
2019-04-09T07:05:02.834Z,100.00
2019-04-09T07:07:54.095Z,100.00
2019-04-09T07:11:10.617Z,100.00
2019-04-09T07:14:10.492Z,100.00
2019-04-09T07:16:51.946Z,100.00
2019-04-09T07:19:56.942Z,100.00
2019-04-09T07:22:42.620Z,100.00
2019-04-09T07:25:34.126Z,100.00
2019-04-09T07:28:13.405Z,100.00
2019-04-09T07:31:06.506Z,100.00
2019-04-09T07:34:01.475Z,100.00
2019-04-09T07:36:42.429Z,100.00
2019-04-09T07:39:43.832Z,100.00
2019-04-09T07:42:30.441Z,100.00
2019-04-09T07:45:25.573Z,100.00
2019-04-09T07:48:20.670Z,100.00
2019-04-09T07:51:18.380Z,100.00
2019-04-09T07:53:55.106Z,100.00
2019-04-09T07:56:34.958Z,99.18
2019-04-09T07:59:21.362Z,99.19
2019-04-09T08:01:55.791Z,96.96
2019-04-09T08:05:00.595Z,95.92
2019-04-09T08:07:48.424Z,95.28
2019-04-09T08:10:42.330Z,95.58
2019-04-09T08:13:32.548Z,98.04
2019-04-09T08:16:21.131Z,97.56
2019-04-09T08:19:07.588Z,95.87
2019-04-09T08:21:46.685Z,95.53
2019-04-09T08:24:36.589Z,94.55
2019-04-09T08:27:23.638Z,94.12
2019-04-09T08:30:18.096Z,94.62
2019-04-09T08:32:55.307Z,94.38
2019-04-09T08:35:43.827Z,93.79
2019-04-09T08:38:29.626Z,90.79
2019-04-09T08:41:19.376Z,87.29
2019-04-09T08:44:14.455Z,83.83
2019-04-09T08:47:01.630Z,82.79
2019-04-09T08:49:49.340Z,82.47
2019-04-09T08:52:32.915Z,82.03
2019-04-09T08:55:13.666Z,80.24
2019-04-09T08:57:49.319Z,78.49
2019-04-09T09:01:07.474Z,75.12
2019-04-09T09:03:09.159Z,70.96
2019-04-09T09:06:05.556Z,71.87
2019-04-09T09:08:58.059Z,73.37
2019-04-09T09:11:37.758Z,75.13
2019-04-09T09:14:36.338Z,80.93
2019-04-09T09:17:36.615Z,78.50
2019-04-09T09:20:20.558Z,78.67
2019-04-09T09:23:09.165Z,79.23
2019-04-09T09:26:04.638Z,80.37
2019-04-09T09:28:51.897Z,78.93
2019-04-09T09:31:44.877Z,76.39
2019-04-09T09:34:26.025Z,74.18
2019-04-09T09:37:24.613Z,74.23
2019-04-09T09:40:07.269Z,71.15
2019-04-09T09:42:56.414Z,73.30
2019-04-09T09:45:51.351Z,72.59
2019-04-09T09:48:31.952Z,76.08
2019-04-09T09:51:24.251Z,76.46
2019-04-09T09:54:14.720Z,77.40
2019-04-09T09:56:58.758Z,77.53
2019-04-09T09:59:52.012Z,79.11
2019-04-09T10:02:35.378Z,77.41
2019-04-09T10:05:20.520Z,76.95
2019-04-09T10:08:10.262Z,80.32
2019-04-09T10:10:54.210Z,80.14
2019-04-09T10:13:42.317Z,79.43
2019-04-09T10:16:33.480Z,78.64
2019-04-09T10:19:34.231Z,81.90
2019-04-09T10:22:29.080Z,86.14
2019-04-09T10:25:15.803Z,89.07
2019-04-09T10:27:54.805Z,92.17
2019-04-09T10:30:45.631Z,97.46
2019-04-09T10:33:32.805Z,100.00
2019-04-09T10:36:36.254Z,100.00
2019-04-09T10:39:16.154Z,100.00
2019-04-09T10:42:08.096Z,100.00
2019-04-09T10:44:55.115Z,100.00
2019-04-09T10:47:41.805Z,100.00
2019-04-09T10:50:37.667Z,100.00
2019-04-09T10:53:36.141Z,100.00
2019-04-09T10:56:33.410Z,100.00
2019-04-09T10:59:24.055Z,98.86
2019-04-09T11:01:59.402Z,98.97
2019-04-09T11:05:04.225Z,99.61
2019-04-09T11:07:49.790Z,100.00
2019-04-09T11:10:38.270Z,100.00
2019-04-09T11:13:14.653Z,100.00
2019-04-09T11:16:03.473Z,100.00
2019-04-09T11:18:58.074Z,100.00
2019-04-09T11:21:43.342Z,100.00
2019-04-09T11:24:30.779Z,100.00
2019-04-09T11:27:24.659Z,100.00
2019-04-09T11:30:13.998Z,100.00
2019-04-09T11:33:02.483Z,100.00
2019-04-09T11:35:52.439Z,100.00
2019-04-09T11:38:29.950Z,100.00
2019-04-09T11:41:17.553Z,100.00
2019-04-09T11:44:07.099Z,100.00
2019-04-09T11:46:50.644Z,100.00
2019-04-09T11:49:55.929Z,100.00
2019-04-09T11:52:44.828Z,100.00
2019-04-09T11:55:23.329Z,100.00
2019-04-09T11:58:08.905Z,100.00
2019-04-09T12:00:50.890Z,100.00
2019-04-09T12:03:43.282Z,100.00
2019-04-09T12:06:39.549Z,100.00
2019-04-09T12:09:21.440Z,100.00
2019-04-09T12:12:19.916Z,100.00
2019-04-09T12:15:14.871Z,100.00
2019-04-09T12:18:07.371Z,100.00
2019-04-09T12:21:04.799Z,100.00
2019-04-09T12:23:42.647Z,100.00
2019-04-09T12:26:49.723Z,100.00
2019-04-09T12:29:27.129Z,100.00
2019-04-09T12:32:20.574Z,100.00
2019-04-09T12:34:52.944Z,95.96
2019-04-09T12:37:48.079Z,90.54
2019-04-09T12:40:24.988Z,90.01
2019-04-09T12:43:23.108Z,83.67
2019-04-09T12:46:11.463Z,81.89
2019-04-09T12:48:59.964Z,82.23
2019-04-09T12:51:47.679Z,84.19
2019-04-09T12:54:36.291Z,84.26
2019-04-09T12:57:17.655Z,78.25
2019-04-09T12:59:59.217Z,78.89
2019-04-09T13:02:57.672Z,81.77
2019-04-09T13:05:41.904Z,77.99
2019-04-09T13:08:29.353Z,82.06
2019-04-09T13:11:22.385Z,82.83
2019-04-09T13:14:11.027Z,82.03
2019-04-09T13:17:02.784Z,84.97
2019-04-09T13:19:54.911Z,81.80
2019-04-09T13:22:47.949Z,80.57
2019-04-09T13:25:32.805Z,79.67
2019-04-09T13:28:10.139Z,88.13
2019-04-09T13:30:51.761Z,87.40
2019-04-09T13:33:37.112Z,86.67
2019-04-09T13:36:24.787Z,84.21
2019-04-09T13:39:01.063Z,84.56
2019-04-09T13:42:05.022Z,79.96
2019-04-09T13:44:45.175Z,79.34
2019-04-09T13:47:33.208Z,76.82
2019-04-09T13:50:31.227Z,76.41
2019-04-09T13:53:01.179Z,73.88
2019-04-09T13:55:31.094Z,71.95
2019-04-09T13:58:01.046Z,74.99
2019-04-09T14:00:31.269Z,77.34
2019-04-09T14:03:36.806Z,77.00
2019-04-09T14:06:00.695Z,75.53
2019-04-09T14:08:30.906Z,73.72
2019-04-09T14:11:01.721Z,72.72
2019-04-09T14:13:32.626Z,75.96
2019-04-09T14:16:03.051Z,77.49
2019-04-09T14:18:32.945Z,74.71
2019-04-09T14:21:02.893Z,72.10
2019-04-09T14:23:34.346Z,73.19
2019-04-09T14:26:05.594Z,71.72
2019-04-09T14:28:35.742Z,76.82
2019-04-09T14:31:08.365Z,76.05
2019-04-09T14:33:38.730Z,76.55
2019-04-09T14:36:10.028Z,76.22
2019-04-09T14:38:40.132Z,76.69
2019-04-09T14:41:10.345Z,78.77
2019-04-09T14:43:41.399Z,82.42
2019-04-09T14:46:11.435Z,81.60
2019-04-09T14:48:41.466Z,81.34
2019-04-09T14:51:11.705Z,80.20
2019-04-09T14:53:43.241Z,81.87
2019-04-09T14:56:13.867Z,81.50
2019-04-09T14:58:44.454Z,83.54
2019-04-09T15:01:15.535Z,81.49
2019-04-09T15:03:45.511Z,83.49
2019-04-09T15:06:16.419Z,84.04
2019-04-09T15:08:46.785Z,84.40
2019-04-09T15:11:16.819Z,84.13
2019-04-09T15:13:46.905Z,85.54
2019-04-09T15:16:17.419Z,85.54
2019-04-09T15:18:47.894Z,85.26
2019-04-09T15:21:41.076Z,86.19
2019-04-09T15:24:11.069Z,84.85
2019-04-09T15:26:42.033Z,84.19
2019-04-09T15:29:12.399Z,85.95
2019-04-09T15:31:43.391Z,85.78
2019-04-09T15:34:13.924Z,86.48
2019-04-09T15:36:43.849Z,85.32
2019-04-09T15:39:17.529Z,83.20
2019-04-09T15:41:48.944Z,82.34
2019-04-09T15:44:22.204Z,82.35
2019-04-09T15:46:51.384Z,83.83
2019-04-09T15:49:21.986Z,81.12
2019-04-09T15:51:53.325Z,82.03
2019-04-09T15:54:23.573Z,81.88
2019-04-09T15:56:53.666Z,82.79
2019-04-09T15:59:23.891Z,83.64
2019-04-09T16:01:54.126Z,81.05
2019-04-09T16:04:24.194Z,82.25
2019-04-09T16:06:55.058Z,83.36
2019-04-09T16:09:25.160Z,83.17
2019-04-09T16:11:55.923Z,84.93
2019-04-09T16:14:26.543Z,84.81
2019-04-09T16:16:56.757Z,85.46
2019-04-09T16:19:28.226Z,86.76
2019-04-09T16:21:59.428Z,88.77
2019-04-09T16:24:30.250Z,87.76
2019-04-09T16:27:00.275Z,86.79
2019-04-09T16:29:30.383Z,86.66
2019-04-09T16:32:01.587Z,86.68
2019-04-09T16:34:32.480Z,86.38
2019-04-09T16:37:09.153Z,88.06
2019-04-09T16:39:34.716Z,88.69
2019-04-09T16:42:04.740Z,89.65
2019-04-09T16:44:34.659Z,89.91
2019-04-09T16:47:04.590Z,90.56
2019-04-09T16:49:34.550Z,91.37
2019-04-09T16:52:05.015Z,91.46
2019-04-09T16:54:36.776Z,91.82
2019-04-09T16:57:06.975Z,92.64
2019-04-09T16:59:37.973Z,93.29
2019-04-09T17:02:08.115Z,94.16
2019-04-09T17:04:38.607Z,94.75
2019-04-09T17:07:09.386Z,94.25
2019-04-09T17:09:40.219Z,94.85
2019-04-09T17:12:13.226Z,94.64
2019-04-09T17:14:44.048Z,95.93
2019-04-09T17:17:15.233Z,95.71
2019-04-09T17:19:46.631Z,95.71
2019-04-09T17:22:18.604Z,95.63
2019-04-09T17:24:48.704Z,95.30
2019-04-09T17:27:19.506Z,95.52
2019-04-09T17:29:49.425Z,97.37
2019-04-09T17:32:19.362Z,96.84
2019-04-09T17:34:49.926Z,97.85
2019-04-09T17:37:20.982Z,97.17
2019-04-09T17:40:02.576Z,97.06
2019-04-09T17:42:23.606Z,96.41
2019-04-09T17:44:53.596Z,95.55
2019-04-09T17:47:23.792Z,94.79
2019-04-09T17:49:53.708Z,94.88
2019-04-09T17:52:24.232Z,94.91
2019-04-09T17:54:54.631Z,95.55
2019-04-09T17:57:24.670Z,96.11
2019-04-09T17:59:55.105Z,96.93
2019-04-09T18:02:26.438Z,96.52
2019-04-09T18:04:57.617Z,98.14
2019-04-09T18:07:28.651Z,98.68
2019-04-09T18:09:58.853Z,97.95
2019-04-09T18:12:28.782Z,96.99
2019-04-09T18:14:58.812Z,97.60
2019-04-09T18:17:29.228Z,97.63
2019-04-09T18:19:59.867Z,98.00
2019-04-09T18:22:29.794Z,98.22
2019-04-09T18:24:59.749Z,97.95
2019-04-09T18:27:29.673Z,98.74
2019-04-09T18:30:00.284Z,99.03
2019-04-09T18:32:31.610Z,99.31
2019-04-09T18:35:03.830Z,99.49
2019-04-09T18:37:34.453Z,99.11
2019-04-09T18:40:05.956Z,99.51
2019-04-09T18:42:36.410Z,99.42
2019-04-09T18:45:07.922Z,99.88
2019-04-09T18:47:38.262Z,98.76
2019-04-09T18:50:10.669Z,99.21
2019-04-09T18:52:40.815Z,99.31
2019-04-09T18:55:11.119Z,98.57
2019-04-09T18:57:41.929Z,97.71
2019-04-09T19:00:13.777Z,97.52
2019-04-09T19:02:43.834Z,96.94
2019-04-09T19:05:16.508Z,97.12
2019-04-09T19:07:45.987Z,96.51
2019-04-09T19:10:16.798Z,96.40
2019-04-09T19:12:46.948Z,97.28
2019-04-09T19:15:17.024Z,97.62
2019-04-09T19:17:47.681Z,98.50
2019-04-09T19:20:17.831Z,98.39
2019-04-09T19:22:48.110Z,99.01
2019-04-09T19:25:19.890Z,99.33
2019-04-09T19:27:49.951Z,99.39
2019-04-09T19:30:20.713Z,99.62
2019-04-09T19:32:52.378Z,100.00
2019-04-09T19:35:30.240Z,100.00
2019-04-09T19:37:55.119Z,100.00
2019-04-09T19:40:26.403Z,100.00
2019-04-09T19:42:57.614Z,100.00
2019-04-09T19:45:31.537Z,100.00
2019-04-09T19:48:01.975Z,100.00
2019-04-09T19:50:33.311Z,100.00
2019-04-09T19:53:04.516Z,100.00
2019-04-09T19:55:34.670Z,100.00
2019-04-09T19:58:04.680Z,100.00
2019-04-09T20:00:35.244Z,100.00
2019-04-09T20:03:05.332Z,100.00
2019-04-09T20:05:38.266Z,100.00
2019-04-09T20:08:07.184Z,100.00
2019-04-09T20:10:39.827Z,100.00
2019-04-09T20:13:10.315Z,100.00
2019-04-09T20:15:40.375Z,100.00
2019-04-09T20:18:10.372Z,100.00
2019-04-09T20:20:41.054Z,100.00
2019-04-09T20:23:11.950Z,100.00
2019-04-09T20:25:42.131Z,100.00
2019-04-09T20:28:12.108Z,100.00
2019-04-09T20:30:42.236Z,100.00
2019-04-09T20:33:12.934Z,100.00
2019-04-09T20:35:49.779Z,100.00
2019-04-09T20:38:14.706Z,100.00
2019-04-09T20:40:44.726Z,100.00
2019-04-09T20:43:15.346Z,100.00
2019-04-09T20:45:45.649Z,100.00
2019-04-09T20:48:17.266Z,100.00
2019-04-09T20:50:48.209Z,100.00
2019-04-09T20:53:18.567Z,100.00
2019-04-09T20:55:48.627Z,100.00
2019-04-09T20:58:20.353Z,100.00
2019-04-09T21:01:15.361Z,100.00
2019-04-09T21:04:02.045Z,100.00
2019-04-09T21:06:31.308Z,100.00
2019-04-09T21:09:02.840Z,100.00
2019-04-09T21:11:32.834Z,100.00
2019-04-09T21:14:02.784Z,100.00
2019-04-09T21:16:33.178Z,100.00
2019-04-09T21:19:03.796Z,100.00
2019-04-09T21:21:33.792Z,100.00
2019-04-09T21:24:04.816Z,100.00
2019-04-09T21:26:34.712Z,100.00
2019-04-09T21:29:06.104Z,100.00
2019-04-09T21:31:36.071Z,100.00
2019-04-09T21:34:06.160Z,100.00
2019-04-09T21:36:36.088Z,100.00
2019-04-09T21:39:08.922Z,100.00
2019-04-09T21:41:39.183Z,100.00
2019-04-09T21:44:09.140Z,100.00
2019-04-09T21:46:39.562Z,100.00
2019-04-09T21:49:09.666Z,100.00
2019-04-09T21:51:39.928Z,100.00
2019-04-09T21:54:09.868Z,100.00
2019-04-09T21:56:40.604Z,100.00
2019-04-09T21:59:10.579Z,100.00
2019-04-09T22:01:41.755Z,100.00
2019-04-09T22:04:12.740Z,100.00
2019-04-09T22:06:42.827Z,100.00
2019-04-09T22:09:13.110Z,100.00
2019-04-09T22:11:43.212Z,100.00
2019-04-09T22:14:14.279Z,100.00
2019-04-09T22:16:45.299Z,100.00
2019-04-09T22:19:15.230Z,100.00
2019-04-09T22:21:45.167Z,100.00
2019-04-09T22:24:15.937Z,100.00
2019-04-09T22:26:45.964Z,100.00
2019-04-09T22:29:16.780Z,100.00
2019-04-09T22:31:46.936Z,100.00
2019-04-09T22:34:16.866Z,100.00
2019-04-09T22:36:46.881Z,100.00
2019-04-09T22:39:16.879Z,100.00
2019-04-09T22:41:47.146Z,100.00
2019-04-09T22:44:17.166Z,100.00
2019-04-09T22:46:47.248Z,100.00
2019-04-09T22:49:17.208Z,100.00
2019-04-09T22:51:47.492Z,100.00
2019-04-09T22:54:19.010Z,100.00
2019-04-09T22:56:49.036Z,100.00
2019-04-09T22:59:19.603Z,100.00
2019-04-09T23:02:18.252Z,100.00
2019-04-09T23:05:10.829Z,100.00
2019-04-09T23:07:54.836Z,100.00
2019-04-09T23:10:30.209Z,100.00
2019-04-09T23:13:02.351Z,100.00
2019-04-09T23:15:43.895Z,100.00
2019-04-09T23:18:14.956Z,100.00
2019-04-09T23:20:45.501Z,100.00
2019-04-09T23:23:15.541Z,100.00
2019-04-09T23:25:45.471Z,100.00
2019-04-09T23:28:16.021Z,100.00
2019-04-09T23:30:46.280Z,100.00
2019-04-09T23:33:16.474Z,100.00
2019-04-09T23:35:47.525Z,100.00
2019-04-09T23:38:18.697Z,100.00
2019-04-09T23:40:48.836Z,100.00
2019-04-09T23:43:19.569Z,100.00
2019-04-09T23:45:50.581Z,100.00
2019-04-09T23:48:20.614Z,100.00
2019-04-09T23:50:50.594Z,100.00
2019-04-09T23:53:21.137Z,100.00
2019-04-09T23:55:52.243Z,100.00
2019-04-09T23:58:22.406Z,100.00
